Flom, Minnesota
Current Conditions -  °F | °C
As of 6:15 PM on Friday 21 Nov 2014 (Local Time) from K3N8 Reporting Station
Clear Clear  
Wind Chill: 14°   Ceiling: Unl
Heat Index: 28°   Visibility: 10mi
Dew Point: 23°   Wind: 23mph
Humidity: 81%   Direction: 190°S
Pressure: 29.7"   Gusts: NA
Location:  47.17°N, 96.13°W
Report Text: K3N8 220015Z AUTO 19020KT 10SM CLR M02/M05 A2970 RMK AO2 T10201048
Loading
Personal Weather Stations






























Interactive Weather Map New forecast layout! Learn more

10-Day Weather Forecast

Advertisements
Track Severe Weather on mobile